Weather at Diesel Dogs Seaplane Base

Public forecast

Using degrees Fahrenheit for public forecast. Weather courtesy of forecast.io.

Closest aviation weather report (METAR) to Diesel Dogs Seaplane Base

Closest report is Fitchburg Municipal Airport, 9.3 nm (17.2 km) E. Retrieved 2020/09/21 07:52 UTC (59 minutes ago):

KFIT 210752Z AUTO 34003KT 10SM CLR 01/M01 A3059 RMK AO2 SLP360 T00111011

Closest aviation forecast (TAF) to Diesel Dogs Seaplane Base

Closest forecast is Worcester Regional Airport, 17.1 nm (31.6 km) SSE. Retrieved 2020/09/21 06:22 UTC (2 hours ago):

TAF KORH 210520Z 2106/2206 36004KT P6SM SKC FM211100 02006KT P6SM SKC FM211500 04008KT P6SM SKC FM212200 05006KT P6SM SKC FM220200 02005KT P6SM SKC FM220400 35005KT P6SM SKC AMD NOT SKED 2106/2109